Time;durP1;ratioP1;P1;durP2;ratioP2;P2;SDS_P1;SDS_P2;PMS_P1;PMS_P2;Temp;Humidity;BMP_temperature;BMP_pressure;BME280_temperature;BME280_humidity;BME280_pressure;Samples;Min_cycle;Max_cycle;Signal;HPM_P1;HPM_P2
2024/04/09 00:02:16;;;;;;;25.67;19.50;;;15.90;92.90;;;;;;5420635;26;20745;-59
2024/04/09 00:04:44;;;;;;;28.47;20.97;;;15.90;92.90;;;;;;5456521;26;20248;-59
2024/04/09 00:07:12;;;;;;;24.43;19.37;;;15.80;93.00;;;;;;5457564;26;20249;-59
2024/04/09 00:09:42;;;;;;;25.70;19.53;;;15.80;93.10;;;;;;5488766;26;20734;-59
2024/04/09 00:12:20;;;;;;;21.83;18.50;;;15.80;93.30;;;;;;5456926;26;20241;-59
2024/04/09 00:14:51;;;;;;;22.70;18.83;;;15.80;93.50;;;;;;5427686;26;20334;-59
2024/04/09 00:17:19;;;;;;;25.23;18.87;;;15.90;93.60;;;;;;5517539;25;20290;-59
2024/04/09 00:19:48;;;;;;;22.00;17.60;;;15.80;93.70;;;;;;5452512;26;20235;-59
2024/04/09 00:22:15;;;;;;;24.33;19.80;;;15.80;93.80;;;;;;5488662;26;20326;-59
2024/04/09 00:24:43;;;;;;;20.97;17.13;;;15.80;93.90;;;;;;5488199;26;20339;-60
2024/04/09 00:27:10;;;;;;;24.30;18.63;;;15.80;93.90;;;;;;5486037;26;20293;-59
2024/04/09 00:29:39;;;;;;;22.53;18.53;;;15.80;93.80;;;;;;5487557;26;20251;-59
2024/04/09 00:32:09;;;;;;;23.00;18.90;;;15.90;93.80;;;;;;5457676;26;20290;-60
2024/04/09 00:34:37;;;;;;;21.87;18.97;;;15.90;93.90;;;;;;5461424;26;20247;-59
2024/04/09 00:37:07;;;;;;;26.37;18.50;;;15.90;93.90;;;;;;5454524;26;20605;-59
2024/04/09 00:39:37;;;;;;;20.47;18.10;;;15.80;93.80;;;;;;5430994;26;20302;-59
2024/04/09 00:42:09;;;;;;;23.83;18.23;;;15.80;93.80;;;;;;5489734;26;20252;-59
2024/04/09 00:44:38;;;;;;;20.00;17.50;;;15.80;93.70;;;;;;5492350;26;20544;-59
2024/04/09 00:47:08;;;;;;;21.20;18.37;;;15.70;93.70;;;;;;5458062;26;20268;-59
2024/04/09 00:49:36;;;;;;;23.30;19.13;;;15.70;93.60;;;;;;5490320;26;20246;-60
2024/04/09 00:52:04;;;;;;;21.10;18.87;;;15.70;93.60;;;;;;5487706;26;20293;-59
2024/04/09 00:54:33;;;;;;;24.37;18.77;;;15.70;93.70;;;;;;5491536;26;20273;-59
2024/04/09 00:57:05;;;;;;;22.67;18.77;;;15.60;93.80;;;;;;5431023;26;20248;-60
2024/04/09 00:59:34;;;;;;;26.03;19.87;;;15.60;94.00;;;;;;5490220;26;20237;-59
2024/04/09 01:02:04;;;;;;;26.90;19.13;;;15.60;94.20;;;;;;5489072;26;20241;-59
2024/04/09 01:04:33;;;;;;;21.97;19.67;;;15.60;94.40;;;;;;5459759;26;20803;-59
2024/04/09 01:07:01;;;;;;;25.53;18.70;;;15.60;94.60;;;;;;5454775;26;20317;-59
2024/04/09 01:09:28;;;;;;;23.07;19.53;;;15.50;94.70;;;;;;5456811;26;20251;-59
2024/04/09 01:11:57;;;;;;;26.33;19.73;;;15.50;94.80;;;;;;5492080;26;20281;-59
2024/04/09 01:14:26;;;;;;;25.37;20.70;;;15.50;94.90;;;;;;5455586;26;20235;-60
2024/04/09 01:16:55;;;;;;;24.30;19.87;;;15.50;95.00;;;;;;5460382;26;20293;-59
2024/04/09 01:19:24;;;;;;;22.40;18.20;;;15.50;95.10;;;;;;5491449;26;20286;-59
2024/04/09 01:21:53;;;;;;;22.83;19.43;;;15.50;95.00;;;;;;5428864;26;20722;-59
2024/04/09 01:24:24;;;;;;;25.53;20.90;;;15.50;95.00;;;;;;5428524;26;20272;-59
2024/04/09 01:26:53;;;;;;;22.53;19.73;;;15.50;94.90;;;;;;5458219;26;20251;-59
2024/04/09 01:29:22;;;;;;;24.73;19.53;;;15.50;95.00;;;;;;5429499;26;20252;-59
2024/04/09 01:31:52;;;;;;;26.17;20.70;;;15.40;95.00;;;;;;5491485;26;20479;-59
2024/04/09 01:34:21;;;;;;;24.27;20.83;;;15.40;95.10;;;;;;5459450;26;20322;-59
2024/04/09 01:36:49;;;;;;;24.13;21.07;;;15.40;95.10;;;;;;5492489;26;20243;-59
2024/04/09 01:39:16;;;;;;;25.67;22.13;;;15.40;95.20;;;;;;5491742;26;20238;-59
2024/04/09 01:41:44;;;;;;;25.00;22.37;;;15.40;95.30;;;;;;5457657;26;20255;-59
2024/04/09 01:44:12;;;;;;;26.27;21.67;;;15.40;95.50;;;;;;5491044;26;20693;-59
2024/04/09 01:46:40;;;;;;;24.90;20.87;;;15.40;95.60;;;;;;5422641;26;20298;-59
2024/04/09 01:49:08;;;;;;;27.70;21.13;;;15.40;95.70;;;;;;5489309;26;20257;-59
2024/04/09 01:51:36;;;;;;;24.10;21.40;;;15.50;95.70;;;;;;5487799;26;20363;-59
2024/04/09 01:54:05;;;;;;;24.73;21.00;;;15.40;95.70;;;;;;5459878;26;20246;-59
2024/04/09 01:56:34;;;;;;;23.23;20.73;;;15.40;95.70;;;;;;5422520;26;20350;-59
2024/04/09 01:59:02;;;;;;;23.00;20.47;;;15.40;95.70;;;;;;5490067;26;20347;-59
2024/04/09 02:01:33;;;;;;;30.33;22.40;;;15.40;95.70;;;;;;5489684;26;20249;-59
2024/04/09 02:04:02;;;;;;;25.10;21.93;;;15.40;95.70;;;;;;5425218;26;20326;-59
2024/04/09 02:06:31;;;;;;;27.23;22.83;;;15.40;95.80;;;;;;5457274;26;20233;-59
2024/04/09 02:08:59;;;;;;;31.10;23.23;;;15.40;95.80;;;;;;5458914;26;20292;-60
2024/04/09 02:11:28;;;;;;;32.53;23.87;;;15.40;96.00;;;;;;5479706;26;20344;-59
2024/04/09 02:13:56;;;;;;;28.40;24.97;;;15.40;96.10;;;;;;5458772;26;20254;-59
2024/04/09 02:16:26;;;;;;;26.13;22.37;;;15.40;96.20;;;;;;5429814;26;20288;-59
2024/04/09 02:18:55;;;;;;;23.53;18.53;;;15.40;96.20;;;;;;5490425;26;20243;-59
2024/04/09 02:21:25;;;;;;;29.30;23.37;;;15.40;96.10;;;;;;5459057;26;20298;-59
2024/04/09 02:23:52;;;;;;;24.37;21.43;;;15.40;96.00;;;;;;5487658;26;20242;-60
2024/04/09 02:26:21;;;;;;;23.87;21.30;;;15.40;96.00;;;;;;5457838;26;20618;-59
2024/04/09 02:28:51;;;;;;;26.90;21.27;;;15.40;96.00;;;;;;5460786;26;20248;-59
2024/04/09 02:31:20;;;;;;;23.30;20.53;;;15.30;95.90;;;;;;5451537;26;20255;-59
2024/04/09 02:33:50;;;;;;;24.73;20.27;;;15.30;95.90;;;;;;5456100;26;20256;-59
2024/04/09 02:36:18;;;;;;;23.10;20.60;;;15.30;95.90;;;;;;5462451;26;20272;-59
2024/04/09 02:38:46;;;;;;;26.73;21.97;;;15.20;95.80;;;;;;5517585;26;20289;-59
2024/04/09 02:41:14;;;;;;;29.43;24.57;;;15.20;95.80;;;;;;5490987;26;20797;-59
2024/04/09 02:43:43;;;;;;;24.90;21.87;;;15.20;95.80;;;;;;5457111;26;20296;-59
2024/04/09 02:46:11;;;;;;;31.33;24.10;;;15.20;96.00;;;;;;5485200;26;20285;-59
2024/04/09 02:48:38;;;;;;;29.53;20.60;;;15.20;96.10;;;;;;5454825;26;20242;-59
2024/04/09 02:51:06;;;;;;;24.07;21.20;;;15.20;96.10;;;;;;5491321;26;20237;-60
2024/04/09 02:53:35;;;;;;;28.87;23.00;;;15.20;95.90;;;;;;5431850;26;20293;-59
2024/04/09 02:56:10;;;;;;;25.37;21.43;;;15.10;95.80;;;;;;5457441;26;20291;-60
2024/04/09 02:58:39;;;;;;;32.23;23.23;;;15.10;95.90;;;;;;5489174;26;20695;-59
2024/04/09 03:01:08;;;;;;;26.97;23.03;;;15.10;95.90;;;;;;5459058;26;20254;-59
2024/04/09 03:03:38;;;;;;;27.37;22.97;;;15.10;96.00;;;;;;5427388;26;20242;-59
2024/04/09 03:06:14;;;;;;;25.97;22.97;;;15.10;96.10;;;;;;5454702;26;20290;-59
2024/04/09 03:08:43;;;;;;;25.20;22.50;;;15.10;96.10;;;;;;5513995;26;20276;-60
2024/04/09 03:11:16;;;;;;;25.53;22.73;;;15.10;96.20;;;;;;5457488;26;20303;-59
2024/04/09 03:13:49;;;;;;;25.27;22.57;;;15.10;96.30;;;;;;5429328;26;20315;-58
2024/04/09 03:16:19;;;;;;;27.33;22.83;;;15.10;96.40;;;;;;5458361;26;20245;-59
2024/04/09 03:18:53;;;;;;;24.93;21.30;;;15.10;96.50;;;;;;5520061;26;20565;-59
2024/04/09 03:21:21;;;;;;;27.83;22.77;;;15.10;96.50;;;;;;5488602;26;20245;-59
2024/04/09 03:23:49;;;;;;;29.23;22.67;;;15.20;96.80;;;;;;5458739;26;20246;-59
2024/04/09 03:26:16;;;;;;;30.33;23.90;;;15.20;96.50;;;;;;5490347;26;20320;-59
2024/04/09 03:28:43;;;;;;;27.97;22.63;;;15.20;96.40;;;;;;5486253;26;20572;-59
2024/04/09 03:31:11;;;;;;;25.90;22.70;;;15.20;96.40;;;;;;5457465;26;20248;-59
2024/04/09 03:33:38;;;;;;;25.77;22.03;;;15.20;96.40;;;;;;5484508;26;20345;-59
2024/04/09 03:36:08;;;;;;;25.10;22.40;;;15.10;96.50;;;;;;5458621;26;20249;-59
2024/04/09 03:38:38;;;;;;;27.40;22.50;;;15.10;96.60;;;;;;5454133;26;20283;-59
2024/04/09 03:41:09;;;;;;;28.70;22.90;;;15.10;96.70;;;;;;5485271;26;20297;-59
2024/04/09 03:43:39;;;;;;;27.83;22.73;;;15.10;96.70;;;;;;5427529;26;20285;-58
2024/04/09 03:46:10;;;;;;;27.57;23.00;;;15.10;96.70;;;;;;5490127;26;20320;-59
2024/04/09 03:48:43;;;;;;;23.67;21.10;;;15.10;96.80;;;;;;5457560;26;20237;-59
2024/04/09 03:51:17;;;;;;;24.63;21.30;;;15.10;96.90;;;;;;5489264;26;20339;-59
2024/04/09 03:53:46;;;;;;;26.17;22.33;;;15.10;97.00;;;;;;5490224;26;20252;-59
2024/04/09 03:56:13;;;;;;;27.40;22.37;;;15.10;97.20;;;;;;5455751;26;20247;-59
2024/04/09 03:58:44;;;;;;;27.80;22.03;;;15.10;97.30;;;;;;5490033;26;20237;-59
2024/04/09 04:01:12;;;;;;;29.13;22.17;;;15.20;97.30;;;;;;5483321;26;20249;-59
2024/04/09 04:03:41;;;;;;;26.27;22.83;;;15.10;97.40;;;;;;5517471;26;20314;-59
2024/04/09 04:06:09;;;;;;;29.57;22.57;;;15.20;97.40;;;;;;5485976;26;20246;-59
2024/04/09 04:08:39;;;;;;;25.43;22.40;;;15.20;97.40;;;;;;5488025;26;20548;-59
2024/04/09 04:11:11;;;;;;;25.03;22.17;;;15.30;97.50;;;;;;5417312;26;20327;-59
2024/04/09 04:13:43;;;;;;;25.23;21.93;;;15.30;97.50;;;;;;5409398;26;20342;-59
2024/04/09 04:16:13;;;;;;;25.60;22.87;;;15.40;97.50;;;;;;5450840;26;20310;-59
2024/04/09 04:18:43;;;;;;;27.37;23.93;;;15.40;97.50;;;;;;5453236;26;20611;-59
2024/04/09 04:21:14;;;;;;;32.67;23.97;;;15.50;97.40;;;;;;5414348;26;20251;-59
2024/04/09 04:23:45;;;;;;;29.40;24.77;;;15.50;97.70;;;;;;5456727;26;20247;-59
2024/04/09 04:26:18;;;;;;;31.23;24.90;;;15.50;97.40;;;;;;5449208;26;20258;-59
2024/04/09 04:28:48;;;;;;;30.77;24.50;;;15.50;97.30;;;;;;5422427;26;20246;-59
2024/04/09 04:31:26;;;;;;;34.80;25.27;;;15.50;97.40;;;;;;5449324;26;20277;-59
2024/04/09 04:33:55;;;;;;;29.60;24.43;;;15.50;97.40;;;;;;5451388;26;20567;-59
2024/04/09 04:36:26;;;;;;;30.43;26.13;;;15.50;97.50;;;;;;5434833;26;20705;-59
2024/04/09 04:38:56;;;;;;;33.00;27.67;;;15.60;97.60;;;;;;5448739;26;20287;-59
2024/04/09 04:41:23;;;;;;;31.23;26.27;;;15.50;97.60;;;;;;5451370;26;20339;-59
2024/04/09 04:43:55;;;;;;;35.03;26.70;;;15.60;97.70;;;;;;5451423;26;20242;-59
2024/04/09 04:46:23;;;;;;;36.83;27.33;;;15.50;97.70;;;;;;5450210;26;20603;-59
2024/04/09 04:48:51;;;;;;;50.63;29.37;;;15.60;97.80;;;;;;5438152;26;20244;-59
2024/04/09 04:51:19;;;;;;;51.23;32.20;;;15.60;97.80;;;;;;5451900;26;20277;-59
2024/04/09 04:53:49;;;;;;;62.67;35.83;;;15.60;97.90;;;;;;5449876;26;20246;-59
2024/04/09 04:56:17;;;;;;;73.30;36.80;;;15.60;98.10;;;;;;5451148;26;20240;-59
2024/04/09 04:58:45;;;;;;;72.93;37.50;;;15.50;98.10;;;;;;5445576;26;20248;-59
2024/04/09 05:01:13;;;;;;;55.80;33.43;;;15.50;98.20;;;;;;5432930;26;20259;-58
2024/04/09 05:03:41;;;;;;;66.00;35.40;;;15.50;98.30;;;;;;5450103;26;20297;-59
2024/04/09 05:06:09;;;;;;;72.40;34.83;;;15.50;98.40;;;;;;5447184;26;20254;-59
2024/04/09 05:08:38;;;;;;;46.53;31.73;;;15.50;98.50;;;;;;5448898;26;20740;-59
2024/04/09 05:11:07;;;;;;;60.33;32.50;;;15.50;98.50;;;;;;5404581;26;20352;-59
2024/04/09 05:13:35;;;;;;;64.07;31.87;;;15.50;98.60;;;;;;5385984;26;20235;-58
2024/04/09 05:16:04;;;;;;;55.43;33.47;;;15.50;98.70;;;;;;5412061;26;20264;-59
2024/04/09 05:18:32;;;;;;;88.17;34.17;;;15.50;98.80;;;;;;5414492;26;20245;-59
2024/04/09 05:21:00;;;;;;;60.93;36.63;;;15.50;98.80;;;;;;5421086;26;20295;-59
2024/04/09 05:23:28;;;;;;;89.53;35.57;;;15.50;98.80;;;;;;5445469;26;20244;-60
2024/04/09 05:25:56;;;;;;;111.60;35.73;;;15.50;98.80;;;;;;5419682;26;20761;-59
2024/04/09 05:28:24;;;;;;;68.07;36.23;;;15.60;98.90;;;;;;5419614;26;20255;-59
2024/04/09 05:30:52;;;;;;;62.63;38.60;;;15.60;98.90;;;;;;5418949;26;20299;-59
2024/04/09 05:33:20;;;;;;;79.17;37.97;;;15.60;99.00;;;;;;5419145;26;20281;-59
2024/04/09 05:35:51;;;;;;;87.73;38.10;;;15.60;99.10;;;;;;5413195;26;20322;-59
2024/04/09 05:38:19;;;;;;;102.97;37.27;;;15.60;99.20;;;;;;5419181;26;20326;-59
2024/04/09 05:40:54;;;;;;;101.20;37.87;;;15.60;99.30;;;;;;5419262;26;20252;-59
2024/04/09 05:43:23;;;;;;;87.87;38.53;;;15.70;99.30;;;;;;5417737;26;20274;-59
2024/04/09 05:45:51;;;;;;;127.20;38.27;;;15.70;99.40;;;;;;5417348;26;20752;-59
2024/04/09 05:48:19;;;;;;;79.80;36.47;;;15.70;99.50;;;;;;5414327;26;20251;-59
2024/04/09 05:50:47;;;;;;;80.30;34.87;;;15.80;99.60;;;;;;5359975;26;20270;-59
2024/04/09 05:53:16;;;;;;;98.30;37.23;;;15.80;99.70;;;;;;5416209;26;20236;-59
2024/04/09 05:55:54;;;;;;;85.47;36.53;;;15.80;99.80;;;;;;5417876;26;20653;-59
2024/04/09 05:58:23;;;;;;;77.90;34.33;;;15.80;99.90;;;;;;5419482;26;20239;-59
2024/04/09 06:00:53;;;;;;;112.07;34.87;;;15.80;99.90;;;;;;5416637;26;20306;-59
2024/04/09 06:03:21;;;;;;;110.13;37.20;;;15.80;99.90;;;;;;5418674;26;20631;-60
2024/04/09 06:05:51;;;;;;;107.07;38.67;;;15.80;99.90;;;;;;5418964;26;20744;-59
2024/04/09 06:08:18;;;;;;;99.00;38.03;;;15.80;99.90;;;;;;5388879;26;20307;-59
2024/04/09 06:10:46;;;;;;;90.33;34.63;;;15.80;99.90;;;;;;5388040;26;20294;-60
2024/04/09 06:13:14;;;;;;;84.43;35.13;;;15.80;99.90;;;;;;5417733;26;20310;-59
2024/04/09 06:15:42;;;;;;;101.57;33.37;;;15.80;99.90;;;;;;5416578;26;20544;-58
2024/04/09 06:18:10;;;;;;;168.33;34.13;;;15.80;99.90;;;;;;5414923;26;20285;-58
2024/04/09 06:20:38;;;;;;;126.67;33.80;;;15.90;99.90;;;;;;5416536;26;20331;-59
2024/04/09 06:23:07;;;;;;;117.20;34.70;;;15.90;99.90;;;;;;5417238;26;20242;-58
2024/04/09 06:25:34;;;;;;;78.40;34.80;;;15.90;99.90;;;;;;5412346;26;20349;-58
2024/04/09 06:28:03;;;;;;;68.67;36.00;;;16.00;99.90;;;;;;5417945;26;20274;-58
2024/04/09 06:30:31;;;;;;;69.63;33.73;;;16.10;99.90;;;;;;5416363;26;20694;-59
2024/04/09 06:32:59;;;;;;;59.23;33.67;;;16.10;99.90;;;;;;5400486;26;20253;-58
2024/04/09 06:35:28;;;;;;;66.20;33.40;;;16.20;99.90;;;;;;5387307;26;20240;-57
2024/04/09 06:37:55;;;;;;;57.10;33.10;;;16.30;99.90;;;;;;5416067;26;20329;-58
2024/04/09 06:40:23;;;;;;;113.07;33.60;;;16.40;99.90;;;;;;5410530;26;20260;-58
2024/04/09 06:42:51;;;;;;;60.80;33.80;;;16.50;99.90;;;;;;5388258;26;20336;-58
2024/04/09 06:45:18;;;;;;;57.20;33.70;;;16.60;99.90;;;;;;5416800;26;20288;-57
2024/04/09 06:47:46;;;;;;;53.60;33.17;;;16.60;99.90;;;;;;5388078;26;20577;-58
2024/04/09 06:50:15;;;;;;;58.47;35.00;;;16.60;99.90;;;;;;5411903;26;20260;-58
2024/04/09 06:52:42;;;;;;;47.27;34.77;;;16.70;99.90;;;;;;5420922;26;20595;-58
2024/04/09 06:55:10;;;;;;;56.00;34.97;;;16.80;99.90;;;;;;5417510;26;20285;-58
2024/04/09 06:57:38;;;;;;;51.37;33.67;;;16.80;99.90;;;;;;5412490;26;20245;-58
2024/04/09 07:00:07;;;;;;;46.33;35.90;;;16.80;99.90;;;;;;5417169;26;20304;-58
2024/04/09 07:02:35;;;;;;;51.47;35.63;;;16.80;99.90;;;;;;5385630;26;20247;-58
2024/04/09 07:05:02;;;;;;;55.50;38.30;;;16.80;99.90;;;;;;5414859;26;20245;-58
2024/04/09 07:07:30;;;;;;;54.90;37.17;;;16.80;99.90;;;;;;5415159;26;20265;-57
2024/04/09 07:09:59;;;;;;;58.37;38.80;;;16.80;99.90;;;;;;5387933;26;20247;-58
2024/04/09 07:12:27;;;;;;;59.83;39.27;;;16.80;99.90;;;;;;5385485;26;20250;-58
2024/04/09 07:14:55;;;;;;;59.93;36.87;;;16.80;99.90;;;;;;5418115;26;20243;-58
2024/04/09 07:17:22;;;;;;;54.70;37.47;;;16.90;99.90;;;;;;5408632;26;20247;-58
2024/04/09 07:19:50;;;;;;;52.07;35.63;;;16.90;99.90;;;;;;5417356;26;20250;-58
2024/04/09 07:22:17;;;;;;;56.90;37.43;;;17.00;99.90;;;;;;5413669;26;20706;-58
2024/04/09 07:24:46;;;;;;;52.23;37.07;;;17.00;99.90;;;;;;5416593;26;20330;-58
2024/04/09 07:27:13;;;;;;;48.23;37.40;;;17.00;99.90;;;;;;5417209;26;20260;-58
2024/04/09 07:29:41;;;;;;;54.37;37.67;;;17.00;99.90;;;;;;5388043;26;20277;-58
2024/04/09 07:32:08;;;;;;;55.20;35.77;;;17.10;99.90;;;;;;5414110;26;20313;-58
2024/04/09 07:34:36;;;;;;;55.10;37.40;;;17.10;99.90;;;;;;5413675;26;20276;-57
2024/04/09 07:37:04;;;;;;;49.83;36.17;;;17.10;99.90;;;;;;5411983;26;20243;-57
2024/04/09 07:39:32;;;;;;;50.10;36.67;;;17.20;99.90;;;;;;5418412;26;20249;-57
2024/04/09 07:41:59;;;;;;;48.47;35.13;;;17.20;99.90;;;;;;5416295;26;20600;-58
2024/04/09 07:44:26;;;;;;;51.47;36.23;;;17.30;99.90;;;;;;5416987;26;20298;-58
2024/04/09 07:46:54;;;;;;;55.40;37.97;;;17.40;99.90;;;;;;5416338;26;20246;-58
2024/04/09 07:49:21;;;;;;;50.80;36.80;;;17.50;99.90;;;;;;5417873;26;20250;-58
2024/04/09 07:51:49;;;;;;;53.80;36.47;;;17.60;99.90;;;;;;5413207;26;20250;-58
2024/04/09 07:54:17;;;;;;;48.87;36.97;;;17.70;99.90;;;;;;5411403;26;20266;-58
2024/04/09 07:56:45;;;;;;;52.77;36.37;;;17.80;99.90;;;;;;5412799;26;20256;-58
2024/04/09 07:59:13;;;;;;;51.07;37.20;;;18.00;99.90;;;;;;5418372;26;20250;-58
2024/04/09 08:01:41;;;;;;;43.73;34.17;;;18.10;99.90;;;;;;5385654;26;20362;-58
2024/04/09 08:04:09;;;;;;;50.83;35.77;;;18.20;99.90;;;;;;5415507;26;20330;-58
2024/04/09 08:06:37;;;;;;;45.07;32.73;;;18.20;99.90;;;;;;5385989;26;20231;-58
2024/04/09 08:09:05;;;;;;;50.80;34.93;;;18.30;99.90;;;;;;5413013;26;20255;-58
2024/04/09 08:11:33;;;;;;;46.50;33.50;;;18.30;99.90;;;;;;5457199;26;20248;-58
2024/04/09 08:14:02;;;;;;;40.07;31.07;;;18.40;99.90;;;;;;5425033;26;20629;-58
2024/04/09 08:16:29;;;;;;;40.37;29.77;;;18.50;99.90;;;;;;5489807;26;20245;-58
2024/04/09 08:18:57;;;;;;;42.13;30.93;;;18.60;99.90;;;;;;5426897;26;20747;-58
2024/04/09 08:21:24;;;;;;;42.77;30.47;;;18.80;99.90;;;;;;5488830;26;20333;-58
2024/04/09 08:23:52;;;;;;;34.57;29.77;;;18.90;99.90;;;;;;5457583;26;20286;-58
2024/04/09 08:26:23;;;;;;;34.53;28.03;;;19.00;99.90;;;;;;5485117;26;20233;-58
2024/04/09 08:28:52;;;;;;;33.40;27.07;;;19.20;99.90;;;;;;5427124;26;20260;-58
2024/04/09 08:31:34;;;;;;;31.90;26.83;;;19.40;99.90;;;;;;5486342;26;20256;-58
2024/04/09 08:34:03;;;;;;;30.00;24.77;;;19.40;99.90;;;;;;5486801;26;20236;-58
2024/04/09 08:36:31;;;;;;;27.10;24.17;;;19.60;99.70;;;;;;5491976;26;20249;-58
2024/04/09 08:38:59;;;;;;;28.57;23.80;;;19.60;99.40;;;;;;5490364;26;20245;-58
2024/04/09 08:41:28;;;;;;;31.93;25.10;;;19.70;98.10;;;;;;5454867;26;20253;-58
2024/04/09 08:43:59;;;;;;;29.07;25.43;;;19.70;98.10;;;;;;5420750;26;20590;-58
2024/04/09 08:46:31;;;;;;;31.57;25.33;;;19.80;98.30;;;;;;5439950;26;20588;-58
2024/04/09 08:49:01;;;;;;;26.20;23.47;;;19.80;98.30;;;;;;5456162;26;20272;-59
2024/04/09 08:51:29;;;;;;;33.17;23.20;;;19.90;98.10;;;;;;5487392;26;20256;-58
2024/04/09 08:53:58;;;;;;;28.43;23.83;;;20.10;98.00;;;;;;5490593;26;20286;-58
2024/04/09 08:56:25;;;;;;;27.63;21.97;;;20.20;98.00;;;;;;5491804;26;20291;-58
2024/04/09 08:58:53;;;;;;;28.33;23.50;;;20.40;97.90;;;;;;5461752;26;20241;-58
2024/04/09 09:01:30;;;;;;;27.17;22.53;;;20.60;97.70;;;;;;5487262;26;20241;-58
2024/04/09 09:03:58;;;;;;;30.57;22.73;;;20.70;96.80;;;;;;5491771;26;20238;-58
2024/04/09 09:06:26;;;;;;;24.40;20.87;;;20.70;96.50;;;;;;5493028;26;20241;-57
2024/04/09 09:08:54;;;;;;;25.90;21.83;;;20.80;96.30;;;;;;5489628;26;20341;-58
2024/04/09 09:11:23;;;;;;;24.60;19.93;;;20.80;96.40;;;;;;5458336;26;20253;-58
2024/04/09 09:13:50;;;;;;;21.60;19.33;;;20.90;96.70;;;;;;5457221;26;20245;-58
2024/04/09 09:16:18;;;;;;;27.13;18.70;;;21.10;97.00;;;;;;5454159;26;20374;-59
2024/04/09 09:18:46;;;;;;;19.70;16.67;;;21.30;96.50;;;;;;5447472;26;20330;-58
2024/04/09 09:21:15;;;;;;;21.20;18.67;;;21.40;95.60;;;;;;5491988;26;20647;-57
2024/04/09 09:23:44;;;;;;;22.00;17.90;;;21.50;95.40;;;;;;5458456;26;20312;-58
2024/04/09 09:26:12;;;;;;;21.50;18.20;;;21.70;95.30;;;;;;5488695;26;20275;-58
2024/04/09 09:28:42;;;;;;;22.77;18.20;;;21.90;95.60;;;;;;5488404;26;20575;-58
2024/04/09 09:31:11;;;;;;;22.77;17.83;;;22.10;95.00;;;;;;5492127;26;20556;-58
2024/04/09 09:33:43;;;;;;;23.17;18.20;;;22.20;94.10;;;;;;5488174;26;20755;-58
2024/04/09 09:36:10;;;;;;;20.50;16.67;;;22.30;93.90;;;;;;5490495;26;20296;-58
2024/04/09 09:38:39;;;;;;;23.77;18.67;;;22.50;93.50;;;;;;5428731;26;20253;-57
2024/04/09 09:41:10;;;;;;;21.57;17.77;;;22.50;93.10;;;;;;5521409;26;20242;-58
2024/04/09 09:43:39;;;;;;;20.63;16.23;;;22.40;93.10;;;;;;5447466;26;20641;-57
2024/04/09 09:46:11;;;;;;;18.53;16.27;;;22.50;93.30;;;;;;5457585;26;20346;-58
2024/04/09 09:48:42;;;;;;;18.47;16.40;;;22.60;93.20;;;;;;5487734;26;20267;-58
2024/04/09 09:51:10;;;;;;;18.87;16.03;;;22.70;93.10;;;;;;5491897;26;20299;-57
2024/04/09 09:53:38;;;;;;;20.00;18.10;;;22.70;92.70;;;;;;5493753;26;20614;-59
2024/04/09 09:56:08;;;;;;;20.37;17.63;;;22.70;92.30;;;;;;5490306;26;20700;-58
2024/04/09 09:58:37;;;;;;;23.23;18.97;;;22.70;91.90;;;;;;5490059;26;20296;-57
2024/04/09 10:01:08;;;;;;;19.50;17.50;;;22.50;92.10;;;;;;5491149;26;20329;-58
2024/04/09 10:03:39;;;;;;;23.40;19.23;;;22.50;92.40;;;;;;5481060;26;20250;-58
2024/04/09 10:06:09;;;;;;;22.07;18.27;;;22.30;92.50;;;;;;5421456;26;20298;-59
2024/04/09 10:08:44;;;;;;;24.00;18.43;;;22.30;92.90;;;;;;5491269;26;20241;-59
2024/04/09 10:11:12;;;;;;;19.27;17.13;;;22.40;93.30;;;;;;5450881;26;20258;-58
2024/04/09 10:13:50;;;;;;;22.07;16.73;;;22.40;92.80;;;;;;5520422;26;20249;-58
2024/04/09 10:16:18;;;;;;;18.47;16.57;;;22.50;93.10;;;;;;5431555;26;20335;-57
2024/04/09 10:18:46;;;;;;;23.60;15.60;;;22.60;93.10;;;;;;5491249;26;20253;-58
2024/04/09 10:21:27;;;;;;;16.10;14.43;;;22.60;92.90;;;;;;5488833;26;20233;-58
2024/04/09 10:24:08;;;;;;;20.00;15.00;;;22.80;93.00;;;;;;5490019;26;20295;-58
2024/04/09 10:26:37;;;;;;;18.20;12.97;;;22.90;93.00;;;;;;5445493;26;20263;-59
2024/04/09 10:29:05;;;;;;;15.17;13.17;;;23.20;92.10;;;;;;5458843;26;20354;-57
2024/04/09 10:31:43;;;;;;;17.47;13.47;;;23.30;92.00;;;;;;5459016;26;20257;-58
2024/04/09 10:34:21;;;;;;;14.80;12.67;;;23.50;92.20;;;;;;5458476;26;20252;-58
2024/04/09 10:36:50;;;;;;;17.73;12.60;;;23.70;92.00;;;;;;5430016;26;20283;-58
2024/04/09 10:39:20;;;;;;;16.43;12.17;;;23.90;91.50;;;;;;5440087;26;20302;-58
2024/04/09 10:41:58;;;;;;;14.00;10.23;;;24.10;91.10;;;;;;5456140;26;20253;-57
2024/04/09 10:44:26;;;;;;;15.80;10.27;;;24.20;90.80;;;;;;5491203;26;20569;-57
2024/04/09 10:46:54;;;;;;;15.30;11.00;;;24.40;90.30;;;;;;5489737;26;20288;-58
2024/04/09 10:49:22;;;;;;;12.27;10.37;;;24.50;87.50;;;;;;5490046;26;20305;-58
2024/04/09 10:51:50;;;;;;;12.30;10.40;;;24.50;87.90;;;;;;5489072;26;20698;-58
2024/04/09 10:54:19;;;;;;;18.10;11.07;;;24.50;87.90;;;;;;5460235;26;20242;-58
2024/04/09 10:56:58;;;;;;;13.50;11.07;;;24.50;87.80;;;;;;5457714;26;20554;-58
2024/04/09 10:59:26;;;;;;;13.77;9.73;;;24.50;87.90;;;;;;5478759;26;20316;-58
2024/04/09 11:01:55;;;;;;;14.20;10.03;;;24.50;87.30;;;;;;5459359;26;20241;-58
2024/04/09 11:04:23;;;;;;;19.37;10.37;;;24.50;87.70;;;;;;5454651;26;20725;-58
2024/04/09 11:06:53;;;;;;;16.80;9.40;;;24.40;88.30;;;;;;5484625;26;20306;-58
2024/04/09 11:09:20;;;;;;;11.53;9.13;;;24.60;89.30;;;;;;5486303;26;20787;-58
2024/04/09 11:11:49;;;;;;;11.23;9.20;;;24.70;88.20;;;;;;5474984;26;20266;-58
2024/04/09 11:14:16;;;;;;;14.47;10.00;;;24.80;88.40;;;;;;5486965;26;20321;-59
2024/04/09 11:16:48;;;;;;;13.17;10.00;;;24.90;87.30;;;;;;5486468;26;20289;-59
2024/04/09 11:19:20;;;;;;;12.10;9.80;;;25.00;86.30;;;;;;5458566;26;20244;-58
2024/04/09 11:21:49;;;;;;;14.00;9.67;;;25.00;86.20;;;;;;5484058;26;20245;-59
2024/04/09 11:24:17;;;;;;;12.07;9.10;;;24.90;84.90;;;;;;5484308;26;20256;-59
2024/04/09 11:26:45;;;;;;;11.83;8.77;;;24.90;85.50;;;;;;5454828;26;20289;-58
2024/04/09 11:29:23;;;;;;;9.37;8.20;;;25.00;84.70;;;;;;5480260;26;20342;-59
2024/04/09 11:31:54;;;;;;;11.87;8.47;;;25.00;85.30;;;;;;5491177;26;20244;-59
2024/04/09 11:34:30;;;;;;;12.80;9.00;;;25.00;85.40;;;;;;5487664;26;20280;-58
2024/04/09 11:36:59;;;;;;;10.47;8.03;;;25.10;84.20;;;;;;5483619;26;20241;-59
2024/04/09 11:39:27;;;;;;;13.47;7.97;;;25.20;84.20;;;;;;5485497;26;20244;-59
2024/04/09 11:41:55;;;;;;;13.93;7.87;;;25.30;83.90;;;;;;5457391;26;20275;-59
2024/04/09 11:44:24;;;;;;;9.67;7.07;;;25.40;83.70;;;;;;5486525;26;20293;-59
2024/04/09 11:46:52;;;;;;;11.70;7.70;;;25.50;81.50;;;;;;5433656;26;20250;-59
2024/04/09 11:49:20;;;;;;;7.80;6.60;;;25.50;81.60;;;;;;5484173;26;20280;-59
2024/04/09 11:51:48;;;;;;;15.33;8.67;;;25.50;82.10;;;;;;5478599;26;20250;-59
2024/04/09 11:54:17;;;;;;;11.77;6.43;;;25.60;80.90;;;;;;5480986;26;20557;-59
2024/04/09 11:56:46;;;;;;;13.47;6.50;;;25.70;81.50;;;;;;5485937;26;20283;-59
2024/04/09 11:59:13;;;;;;;9.20;6.30;;;25.70;80.70;;;;;;5486876;26;20301;-59
2024/04/09 12:01:41;;;;;;;9.57;6.37;;;25.70;81.90;;;;;;5488917;26;20241;-59
2024/04/09 12:04:09;;;;;;;10.30;6.40;;;25.70;82.20;;;;;;5487302;26;20245;-59
2024/04/09 12:06:39;;;;;;;9.83;7.20;;;25.70;82.00;;;;;;5485669;26;20233;-59
2024/04/09 12:09:07;;;;;;;13.50;7.80;;;25.70;80.70;;;;;;5487150;26;20690;-59
2024/04/09 12:11:38;;;;;;;12.83;6.73;;;25.70;81.60;;;;;;5483976;26;20237;-59
2024/04/09 12:14:06;;;;;;;15.20;6.53;;;25.60;81.10;;;;;;5489093;26;20249;-59
2024/04/09 12:16:34;;;;;;;9.30;5.93;;;25.50;81.90;;;;;;5493095;26;20590;-58
2024/04/09 12:19:01;;;;;;;8.73;6.63;;;25.40;82.20;;;;;;5480409;26;20336;-58
2024/04/09 12:21:30;;;;;;;10.33;6.20;;;25.40;82.80;;;;;;5484015;26;20273;-59
2024/04/09 12:23:59;;;;;;;10.93;6.67;;;25.40;81.80;;;;;;5489800;26;20299;-59
2024/04/09 12:26:28;;;;;;;8.47;6.27;;;25.30;82.50;;;;;;5453606;26;20321;-59
2024/04/09 12:28:59;;;;;;;8.20;6.10;;;25.30;81.20;;;;;;5483143;26;20323;-59
2024/04/09 12:31:27;;;;;;;10.00;5.73;;;25.20;80.30;;;;;;5484643;26;20335;-59
2024/04/09 12:33:55;;;;;;;6.93;5.60;;;25.10;80.50;;;;;;5459400;26;20245;-58
2024/04/09 12:36:23;;;;;;;10.63;5.80;;;25.00;79.90;;;;;;5488450;26;20237;-59
2024/04/09 12:38:50;;;;;;;7.67;5.83;;;24.90;80.90;;;;;;5489517;26;20297;-60